YXPM weather

Port Macquarie Hospital Helipad
Port Macquarie, New South Wales, Australia

Public forecast

Using degrees Celsius for public forecast. Weather courtesy of forecast.io.

METAR (pilot weather report)

Report is more than 6 hours old.

Closest report is Port Macquarie Airport, 1.4 nm (2.5 km) NW. Retrieved 2019/02/17 04:03 UTC (18 hours ago):

YPMQ 170403Z AUTO 06015G25KT 9999 // NCD 27/18 Q1012

TAF (pilot weather forecast)

Closest forecast is Taree Airport, 32.2 nm (59.6 km) SW. Retrieved 2019/02/17 19:00 UTC (3 hours ago):

TAF YTRE 171729Z 1719/1808 03006KT CAVOK FM172300 03010KT CAVOK FM180300 06014KT CAVOK